Time;durP1;ratioP1;P1;durP2;ratioP2;P2;SDS_P1;SDS_P2;PMS_P1;PMS_P2;Temp;Humidity;BMP_temperature;BMP_pressure;BME280_temperature;BME280_humidity;BME280_pressure;Samples;Min_cycle;Max_cycle;Signal;HPM_P1;HPM_P2
2022/08/28 00:00:51;;;;;;;;;;;;;;;;;;5134772;27;1426;-74
2022/08/28 00:03:18;;;;;;;;;;;;;;;;;;5134676;27;1353;-75
2022/08/28 00:05:46;;;;;;;;;;;;;;;;;;5153370;27;1989;-75
2022/08/28 00:08:13;;;;;;;;;;;;;;;;;;5153354;27;1063;-75
2022/08/28 00:10:39;;;;;;;;;;;;;;;;;;5153461;27;1071;-75
2022/08/28 00:13:06;;;;;;;;;;;;;;;;;;5153028;27;1066;-75
2022/08/28 00:15:33;;;;;;;;;;;;;;;;;;5133448;27;1844;-75
2022/08/28 00:18:00;;;;;;;;;;;;;;;;;;5114215;27;1326;-74
2022/08/28 00:20:26;;;;;;;;;;;;;;;;;;5132442;27;1023;-75
2022/08/28 00:22:54;;;;;;;;;;;;;;;;;;5132250;27;801;-74
2022/08/28 00:25:22;;;;;;;;;;;;;;;;;;5132040;27;1918;-75
2022/08/28 00:27:55;;;;;;;;;;;;;;;;;;5132190;27;1066;-75
2022/08/28 00:30:22;;;;;;;;;;;;;;;;;;5113743;27;1159;-75
2022/08/28 00:32:48;;;;;;;;;;;;;;;;;;5113489;28;1203;-74
2022/08/28 00:35:16;;;;;;;;;;;;;;;;;;5132094;27;1234;-74
2022/08/28 00:37:42;;;;;;;;;;;;;;;;;;5132352;27;1114;-75
2022/08/28 00:40:11;;;;;;;;;;;;;;;;;;5132300;27;860;-75
2022/08/28 00:42:38;;;;;;;;;;;;;;;;;;5132382;27;1078;-74
2022/08/28 00:45:04;;;;;;;;;;;;;;;;;;5132944;27;1913;-75
2022/08/28 00:47:30;;;;;;;;;;;;;;;;;;5132867;28;980;-74
2022/08/28 00:49:57;;;;;;;;;;;;;;;;;;5131903;28;1118;-74
2022/08/28 00:52:23;;;;;;;;;;;;;;;;;;5132072;28;1067;-74
2022/08/28 00:54:50;;;;;;;;;;;;;;;;;;5132007;28;1313;-75
2022/08/28 00:57:20;;;;;;;;;;;;;;;;;;5132644;28;1138;-74
2022/08/28 00:59:46;;;;;;;;;;;;;;;;;;5132429;28;964;-74
2022/08/28 01:02:13;;;;;;;;;;;;;;;;;;5132625;27;996;-74
2022/08/28 01:04:39;;;;;;;;;;;;;;;;;;5136092;27;1917;-74
2022/08/28 01:07:06;;;;;;;;;;;;;;;;;;5136013;27;1130;-74
2022/08/28 01:09:33;;;;;;;;;;;;;;;;;;5136107;27;1131;-73
2022/08/28 01:12:01;;;;;;;;;;;;;;;;;;5135643;27;1212;-75
2022/08/28 01:14:30;;;;;;;;;;;;;;;;;;5135969;27;1378;-74
2022/08/28 01:16:56;;;;;;;;;;;;;;;;;;5135750;27;1059;-75
2022/08/28 01:19:25;;;;;;;;;;;;;;;;;;5135862;27;1141;-75
2022/08/28 01:21:53;;;;;;;;;;;;;;;;;;5117066;27;1218;-75
2022/08/28 01:24:20;;;;;;;;;;;;;;;;;;5134209;27;1917;-75
2022/08/28 01:26:47;;;;;;;;;;;;;;;;;;5134184;27;819;-74
2022/08/28 01:29:13;;;;;;;;;;;;;;;;;;5134819;27;1075;-75
2022/08/28 01:31:39;;;;;;;;;;;;;;;;;;5132860;27;849;-75
2022/08/28 01:34:06;;;;;;;;;;;;;;;;;;5116919;27;1377;-75
2022/08/28 01:36:33;;;;;;;;;;;;;;;;;;5135191;27;908;-75
2022/08/28 01:39:01;;;;;;;;;;;;;;;;;;5134142;27;1062;-75
2022/08/28 01:41:29;;;;;;;;;;;;;;;;;;5133847;27;1078;-74
2022/08/28 01:43:55;;;;;;;;;;;;;;;;;;5137413;27;1544;-75
2022/08/28 01:46:22;;;;;;;;;;;;;;;;;;5135393;27;1977;-75
2022/08/28 01:48:48;;;;;;;;;;;;;;;;;;5138599;27;1086;-75
2022/08/28 01:51:14;;;;;;;;;;;;;;;;;;5121548;27;1131;-75
2022/08/28 01:53:41;;;;;;;;;;;;;;;;;;5138958;27;1308;-74
2022/08/28 01:56:08;;;;;;;;;;;;;;;;;;5135071;27;1086;-75
2022/08/28 01:58:35;;;;;;;;;;;;;;;;;;5135265;27;1047;-74
2022/08/28 02:01:01;;;;;;;;;;;;;;;;;;5134832;27;1003;-75
2022/08/28 02:03:27;;;;;;;;;;;;;;;;;;5132955;27;1304;-74
2022/08/28 02:05:55;;;;;;;;;;;;;;;;;;5131667;27;1948;-74
2022/08/28 02:08:21;;;;;;;;;;;;;;;;;;5131451;27;913;-75
2022/08/28 02:10:47;;;;;;;;;;;;;;;;;;5133206;27;1066;-75
2022/08/28 02:13:14;;;;;;;;;;;;;;;;;;5131864;27;1196;-75
2022/08/28 02:15:41;;;;;;;;;;;;;;;;;;5131689;27;1368;-74
2022/08/28 02:18:08;;;;;;;;;;;;;;;;;;5114434;27;1007;-74
2022/08/28 02:20:34;;;;;;;;;;;;;;;;;;5133061;27;1083;-75
2022/08/28 02:23:00;;;;;;;;;;;;;;;;;;5132474;27;952;-75
2022/08/28 02:25:27;;;;;;;;;;;;;;;;;;5133087;27;1914;-75
2022/08/28 02:27:53;;;;;;;;;;;;;;;;;;5131105;27;877;-75
2022/08/28 02:30:19;;;;;;;;;;;;;;;;;;5130675;27;1099;-75
2022/08/28 02:32:47;;;;;;;;;;;;;;;;;;5132790;27;1078;-75
2022/08/28 02:35:14;;;;;;;;;;;;;;;;;;5133537;27;1384;-75
2022/08/28 02:37:41;;;;;;;;;;;;;;;;;;5131748;27;1066;-74
2022/08/28 02:40:08;;;;;;;;;;;;;;;;;;5111973;27;1254;-73
2022/08/28 02:42:34;;;;;;;;;;;;;;;;;;5131767;27;955;-74
2022/08/28 02:45:00;;;;;;;;;;;;;;;;;;5131890;27;2523;-74
2022/08/28 02:47:26;;;;;;;;;;;;;;;;;;5132873;27;1071;-74
2022/08/28 02:49:54;;;;;;;;;;;;;;;;;;5133772;27;1090;-73
2022/08/28 02:52:21;;;;;;;;;;;;;;;;;;5133925;27;849;-74
2022/08/28 02:54:47;;;;;;;;;;;;;;;;;;5115951;27;1299;-74
2022/08/28 02:57:14;;;;;;;;;;;;;;;;;;5134078;27;1122;-74
2022/08/28 02:59:40;;;;;;;;;;;;;;;;;;5134310;27;842;-74
2022/08/28 03:02:06;;;;;;;;;;;;;;;;;;5133514;27;1127;-73
2022/08/28 03:04:32;;;;;;;;;;;;;;;;;;5133810;27;1969;-73
2022/08/28 03:07:00;;;;;;;;;;;;;;;;;;5133771;27;1071;-73
2022/08/28 03:09:26;;;;;;;;;;;;;;;;;;5133893;27;984;-74
2022/08/28 03:11:52;;;;;;;;;;;;;;;;;;5133686;27;1082;-74
2022/08/28 03:14:18;;;;;;;;;;;;;;;;;;5133864;27;1296;-74
2022/08/28 03:16:45;;;;;;;;;;;;;;;;;;5133797;27;1126;-74
2022/08/28 03:19:11;;;;;;;;;;;;;;;;;;5133584;27;897;-73
2022/08/28 03:21:37;;;;;;;;;;;;;;;;;;5133435;27;1067;-74
2022/08/28 03:24:04;;;;;;;;;;;;;;;;;;5133428;27;1313;-74
2022/08/28 03:26:30;;;;;;;;;;;;;;;;;;5132718;27;1981;-74
2022/08/28 03:28:57;;;;;;;;;;;;;;;;;;5133448;27;1030;-73
2022/08/28 03:31:24;;;;;;;;;;;;;;;;;;5133005;27;940;-73
2022/08/28 03:33:50;;;;;;;;;;;;;;;;;;5133130;27;1376;-73
2022/08/28 03:36:18;;;;;;;;;;;;;;;;;;5119824;22;1970;-72
2022/08/28 03:38:44;;;;;;;;;;;;;;;;;;5091809;28;1130;-72
2022/08/28 03:41:12;;;;;;;;;;;;;;;;;;5073816;28;1254;-72
2022/08/28 03:43:38;;;;;;;;;;;;;;;;;;5091707;28;816;-73
2022/08/28 03:46:06;;;;;;;;;;;;;;;;;;5063013;28;1914;-72
2022/08/28 03:48:34;;;;;;;;;;;;;;;;;;5071388;28;1491;-72
2022/08/28 03:51:01;;;;;;;;;;;;;;;;;;5053334;28;1028;-72
2022/08/28 03:53:28;;;;;;;;;;;;;;;;;;5071250;28;1265;-72
2022/08/28 03:55:55;;;;;;;;;;;;;;;;;;5071555;28;1317;-72
2022/08/28 03:58:23;;;;;;;;;;;;;;;;;;5071323;28;1115;-72
2022/08/28 04:00:49;;;;;;;;;;;;;;;;;;5071314;28;869;-72
2022/08/28 04:03:16;;;;;;;;;;;;;;;;;;5070944;28;910;-72
2022/08/28 04:05:42;;;;;;;;;;;;;;;;;;5053329;28;1922;-72
2022/08/28 04:08:09;;;;;;;;;;;;;;;;;;5071347;28;996;-72
2022/08/28 04:10:35;;;;;;;;;;;;;;;;;;5053242;28;1250;-72
2022/08/28 04:13:01;;;;;;;;;;;;;;;;;;5070694;28;969;-71
2022/08/28 04:15:29;;;;;;;;;;;;;;;;;;5070893;28;1376;-72
2022/08/28 04:17:55;;;;;;;;;;;;;;;;;;5071052;28;874;-72
2022/08/28 04:20:21;;;;;;;;;;;;;;;;;;5070725;28;1091;-72
2022/08/28 04:22:48;;;;;;;;;;;;;;;;;;5070638;28;1064;-73
2022/08/28 04:25:14;;;;;;;;;;;;;;;;;;5070685;28;1971;-72
2022/08/28 04:27:40;;;;;;;;;;;;;;;;;;5071165;28;1111;-73
2022/08/28 04:30:07;;;;;;;;;;;;;;;;;;5053024;28;1345;-72
2022/08/28 04:32:35;;;;;;;;;;;;;;;;;;5070486;28;835;-71
2022/08/28 04:35:01;;;;;;;;;;;;;;;;;;5070962;28;1317;-71
2022/08/28 04:37:27;;;;;;;;;;;;;;;;;;5069280;28;1143;-71
2022/08/28 04:39:53;;;;;;;;;;;;;;;;;;5068317;28;1436;-71
2022/08/28 04:42:20;;;;;;;;;;;;;;;;;;5065909;28;1448;-72
2022/08/28 04:44:46;;;;;;;;;;;;;;;;;;5060908;28;1080;-72
2022/08/28 04:47:12;;;;;;;;;;;;;;;;;;5048881;28;1922;-71
2022/08/28 04:49:40;;;;;;;;;;;;;;;;;;5061994;28;1398;-72
2022/08/28 04:52:06;;;;;;;;;;;;;;;;;;5045470;28;1469;-73
2022/08/28 04:54:33;;;;;;;;;;;;;;;;;;5051411;28;1146;-71
2022/08/28 04:56:59;;;;;;;;;;;;;;;;;;5048481;28;1428;-72
2022/08/28 04:59:26;;;;;;;;;;;;;;;;;;5049707;28;1471;-72
2022/08/28 05:01:52;;;;;;;;;;;;;;;;;;5041693;28;1278;-72
2022/08/28 05:04:18;;;;;;;;;;;;;;;;;;5048553;28;1220;-71
2022/08/28 05:06:46;;;;;;;;;;;;;;;;;;5030600;28;1936;-71
2022/08/28 05:09:13;;;;;;;;;;;;;;;;;;5053673;28;1420;-72
2022/08/28 05:11:39;;;;;;;;;;;;;;;;;;5053467;28;1197;-71
2022/08/28 05:14:06;;;;;;;;;;;;;;;;;;5030726;28;1414;-70
2022/08/28 05:16:33;;;;;;;;;;;;;;;;;;5048454;28;1344;-71
2022/08/28 05:18:59;;;;;;;;;;;;;;;;;;5037350;28;1466;-71
2022/08/28 05:21:26;;;;;;;;;;;;;;;;;;5056135;28;1225;-71
2022/08/28 05:23:55;;;;;;;;;;;;;;;;;;5048599;28;806;-71
2022/08/28 05:26:22;;;;;;;;;;;;;;;;;;5030330;28;1929;-72
2022/08/28 05:28:48;;;;;;;;;;;;;;;;;;5034375;28;1380;-72
2022/08/28 05:31:15;;;;;;;;;;;;;;;;;;5036574;28;1260;-70
2022/08/28 05:33:42;;;;;;;;;;;;;;;;;;5030426;28;1043;-70
2022/08/28 05:36:08;;;;;;;;;;;;;;;;;;5047911;28;1406;-70
2022/08/28 05:38:34;;;;;;;;;;;;;;;;;;5054480;28;1429;-71
2022/08/28 05:41:02;;;;;;;;;;;;;;;;;;5056499;28;1213;-71
2022/08/28 05:43:30;;;;;;;;;;;;;;;;;;5047993;28;1075;-72
2022/08/28 05:45:58;;;;;;;;;;;;;;;;;;5047844;28;1977;-70
2022/08/28 05:48:26;;;;;;;;;;;;;;;;;;5056066;28;1594;-71
2022/08/28 05:50:52;;;;;;;;;;;;;;;;;;5054309;28;1072;-71
2022/08/28 05:53:18;;;;;;;;;;;;;;;;;;5051485;28;1111;-71
2022/08/28 05:55:44;;;;;;;;;;;;;;;;;;5051676;28;1328;-71
2022/08/28 05:58:31;;;;;;;;;;;;;;;;;;5056844;28;1535;-71
2022/08/28 06:01:03;;;;;;;;;;;;;;;;;;5055116;28;1149;-71
2022/08/28 06:03:29;;;;;;;;;;;;;;;;;;5057378;28;1443;-71
2022/08/28 06:05:55;;;;;;;;;;;;;;;;;;5063934;28;1914;-71
2022/08/28 06:08:22;;;;;;;;;;;;;;;;;;5060460;28;1554;-71
2022/08/28 06:10:49;;;;;;;;;;;;;;;;;;5051537;28;810;-71
2022/08/28 06:13:16;;;;;;;;;;;;;;;;;;5043774;28;1422;-71
2022/08/28 06:15:42;;;;;;;;;;;;;;;;;;5065159;28;1400;-71
2022/08/28 06:18:09;;;;;;;;;;;;;;;;;;5060968;28;1107;-70
2022/08/28 06:20:36;;;;;;;;;;;;;;;;;;5051508;28;1004;-72
2022/08/28 06:23:02;;;;;;;;;;;;;;;;;;5061017;28;1467;-70
2022/08/28 06:25:28;;;;;;;;;;;;;;;;;;5044450;28;1452;-70
2022/08/28 06:27:54;;;;;;;;;;;;;;;;;;5060627;28;1985;-72
2022/08/28 06:30:22;;;;;;;;;;;;;;;;;;5059868;28;1129;-71
2022/08/28 06:32:48;;;;;;;;;;;;;;;;;;5060527;28;1446;-71
2022/08/28 06:35:14;;;;;;;;;;;;;;;;;;5059669;28;1504;-73
2022/08/28 06:37:41;;;;;;;;;;;;;;;;;;5048319;28;2022;-73
2022/08/28 06:40:08;;;;;;;;;;;;;;;;;;5060102;28;1428;-71
2022/08/28 06:42:34;;;;;;;;;;;;;;;;;;5032738;28;1279;-72
2022/08/28 06:45:00;;;;;;;;;;;;;;;;;;5051011;28;1387;-72
2022/08/28 06:47:27;;;;;;;;;;;;;;;;;;5037500;28;1918;-72
2022/08/28 06:49:54;;;;;;;;;;;;;;;;;;5065093;28;1356;-72
2022/08/28 06:52:20;;;;;;;;;;;;;;;;;;5061497;28;1260;-71
2022/08/28 06:54:46;;;;;;;;;;;;;;;;;;5059579;28;1456;-72
2022/08/28 06:57:13;;;;;;;;;;;;;;;;;;5052470;28;1312;-71
2022/08/28 06:59:39;;;;;;;;;;;;;;;;;;5049363;28;1056;-72
2022/08/28 07:02:05;;;;;;;;;;;;;;;;;;5054893;28;1428;-73
2022/08/28 07:04:32;;;;;;;;;;;;;;;;;;5054823;28;1118;-73
2022/08/28 07:06:59;;;;;;;;;;;;;;;;;;5050441;28;1918;-72
2022/08/28 07:09:25;;;;;;;;;;;;;;;;;;5050757;28;1013;-73
2022/08/28 07:11:51;;;;;;;;;;;;;;;;;;5036267;28;1634;-72
2022/08/28 07:14:17;;;;;;;;;;;;;;;;;;5058469;28;1246;-71
2022/08/28 07:16:43;;;;;;;;;;;;;;;;;;5056574;28;1450;-72
2022/08/28 07:19:11;;;;;;;;;;;;;;;;;;5060748;28;1247;-72
2022/08/28 07:21:39;;;;;;;;;;;;;;;;;;5051999;28;893;-72
2022/08/28 07:24:05;;;;;;;;;;;;;;;;;;5070205;28;793;-72
2022/08/28 07:26:31;;;;;;;;;;;;;;;;;;5051067;28;1934;-72
2022/08/28 07:28:58;;;;;;;;;;;;;;;;;;5040033;28;1431;-73
2022/08/28 07:31:25;;;;;;;;;;;;;;;;;;5060046;28;1437;-71
2022/08/28 07:33:51;;;;;;;;;;;;;;;;;;5067937;28;1124;-72
2022/08/28 07:36:18;;;;;;;;;;;;;;;;;;5066899;28;1318;-72
2022/08/28 07:38:46;;;;;;;;;;;;;;;;;;5072075;28;786;-71
2022/08/28 07:41:13;;;;;;;;;;;;;;;;;;5066941;28;1416;-71
2022/08/28 07:46:23;;;;;;;;;;;;;;;;;;5062001;28;1989;-70
2022/08/28 07:48:49;;;;;;;;;;;;;;;;;;5058773;28;1437;-72
2022/08/28 07:51:15;;;;;;;;;;;;;;;;;;5061346;28;1410;-72
2022/08/28 07:53:41;;;;;;;;;;;;;;;;;;5046773;28;1595;-71
2022/08/28 07:56:10;;;;;;;;;;;;;;;;;;5055478;28;1454;-71
2022/08/28 07:58:36;;;;;;;;;;;;;;;;;;5059694;28;1230;-71
2022/08/28 08:01:03;;;;;;;;;;;;;;;;;;5055738;28;1239;-70
2022/08/28 08:03:29;;;;;;;;;;;;;;;;;;5063778;28;1417;-71
2022/08/28 08:05:56;;;;;;;;;;;;;;;;;;5033381;28;1397;-72
2022/08/28 08:08:22;;;;;;;;;;;;;;;;;;5050167;28;1954;-72
2022/08/28 08:10:55;;;;;;;;;;;;;;;;;;5062826;28;1423;-73
2022/08/28 08:13:22;;;;;;;;;;;;;;;;;;5061788;28;1405;-72
2022/08/28 08:15:49;;;;;;;;;;;;;;;;;;5037447;28;1355;-72
2022/08/28 08:18:15;;;;;;;;;;;;;;;;;;5033251;28;1144;-71
2022/08/28 08:20:42;;;;;;;;;;;;;;;;;;5033627;28;1425;-72
2022/08/28 08:23:08;;;;;;;;;;;;;;;;;;5061438;28;1602;-72
2022/08/28 08:25:34;;;;;;;;;;;;;;;;;;5067844;28;1503;-72
2022/08/28 08:28:02;;;;;;;;;;;;;;;;;;5045003;28;1914;-71
2022/08/28 08:30:29;;;;;;;;;;;;;;;;;;5063883;28;1171;-72
2022/08/28 08:32:56;;;;;;;;;;;;;;;;;;5064655;28;1416;-72
2022/08/28 08:35:22;;;;;;;;;;;;;;;;;;5062059;28;1487;-71
2022/08/28 08:37:48;;;;;;;;;;;;;;;;;;5058674;28;1709;-72
2022/08/28 08:40:18;;;;;;;;;;;;;;;;;;5060945;28;1445;-71
2022/08/28 08:42:44;;;;;;;;;;;;;;;;;;5057991;28;1370;-71
2022/08/28 08:45:11;;;;;;;;;;;;;;;;;;5062599;28;1409;-72
2022/08/28 08:47:40;;;;;;;;;;;;;;;;;;5061870;28;1966;-70
2022/08/28 08:50:07;;;;;;;;;;;;;;;;;;5063422;28;1415;-71
2022/08/28 08:52:35;;;;;;;;;;;;;;;;;;5058923;28;1392;-71
2022/08/28 08:55:05;;;;;;;;;;;;;;;;;;5058720;28;1399;-71
2022/08/28 08:57:32;;;;;;;;;;;;;;;;;;5058081;28;1451;-72
2022/08/28 08:59:58;;;;;;;;;;;;;;;;;;5048358;28;1789;-71
2022/08/28 09:02:26;;;;;;;;;;;;;;;;;;5040651;28;1395;-70
2022/08/28 09:04:55;;;;;;;;;;;;;;;;;;5066760;28;1449;-72
2022/08/28 09:07:23;;;;;;;;;;;;;;;;;;5058695;28;1921;-71
2022/08/28 09:09:51;;;;;;;;;;;;;;;;;;5050809;28;1060;-71
2022/08/28 09:12:18;;;;;;;;;;;;;;;;;;5061722;28;1424;-70
2022/08/28 09:14:45;;;;;;;;;;;;;;;;;;5060743;28;1962;-71
2022/08/28 09:17:11;;;;;;;;;;;;;;;;;;5063766;28;1396;-72
2022/08/28 09:19:37;;;;;;;;;;;;;;;;;;5050623;28;1078;-72
2022/08/28 09:22:05;;;;;;;;;;;;;;;;;;5050307;28;980;-72
2022/08/28 09:24:32;;;;;;;;;;;;;;;;;;5053524;28;1079;-71
2022/08/28 09:26:59;;;;;;;;;;;;;;;;;;5058516;28;1910;-72
2022/08/28 09:29:30;;;;;;;;;;;;;;;;;;5063759;28;1520;-70
2022/08/28 09:31:56;;;;;;;;;;;;;;;;;;5060291;28;1263;-71
2022/08/28 09:34:30;;;;;;;;;;;;;;;;;;5050086;28;1168;-71
2022/08/28 09:36:57;;;;;;;;;;;;;;;;;;5068017;28;1385;-73
2022/08/28 09:39:25;;;;;;;;;;;;;;;;;;5074592;22;3451;-76
2022/08/28 09:44:50;;;;;;;;;;;;;;;;;;5052520;28;916;-76
2022/08/28 09:47:33;;;;;;;;;;;;;;;;;;5052496;28;1914;-76
2022/08/28 09:50:13;;;;;;;;;;;;;;;;;;5052254;28;1345;-76
2022/08/28 09:52:39;;;;;;;;;;;;;;;;;;5034325;28;1078;-76
2022/08/28 09:55:07;;;;;;;;;;;;;;;;;;5035379;28;1184;-76
2022/08/28 09:57:33;;;;;;;;;;;;;;;;;;5054411;28;965;-76
2022/08/28 09:59:59;;;;;;;;;;;;;;;;;;5054311;28;1292;-75
2022/08/28 10:02:27;;;;;;;;;;;;;;;;;;5053834;28;964;-76
2022/08/28 10:04:59;;;;;;;;;;;;;;;;;;5054137;28;966;-76
2022/08/28 10:07:28;;;;;;;;;;;;;;;;;;5054036;28;1891;-76
2022/08/28 10:09:56;;;;;;;;;;;;;;;;;;5036055;28;1315;-74
2022/08/28 10:12:29;;;;;;;;;;;;;;;;;;5035940;28;1148;-76
2022/08/28 10:14:57;;;;;;;;;;;;;;;;;;5054212;28;1095;-77
2022/08/28 10:17:25;;;;;;;;;;;;;;;;;;5053971;28;591;-76
2022/08/28 10:19:53;;;;;;;;;;;;;;;;;;5054128;28;1377;-77
2022/08/28 10:22:23;;;;;;;;;;;;;;;;;;5053695;28;866;-76
2022/08/28 10:24:53;;;;;;;;;;;;;;;;;;5054211;28;1107;-75
2022/08/28 10:27:23;;;;;;;;;;;;;;;;;;5053802;28;1939;-76
2022/08/28 10:29:52;;;;;;;;;;;;;;;;;;5053838;28;1416;-76
2022/08/28 10:32:23;;;;;;;;;;;;;;;;;;5035759;28;1545;-77
2022/08/28 10:34:53;;;;;;;;;;;;;;;;;;5053601;28;1004;-76
2022/08/28 10:37:23;;;;;;;;;;;;;;;;;;5054825;28;890;-76
2022/08/28 10:39:51;;;;;;;;;;;;;;;;;;5053326;28;1383;-76
2022/08/28 10:42:20;;;;;;;;;;;;;;;;;;5053003;28;1075;-76
2022/08/28 10:44:48;;;;;;;;;;;;;;;;;;5053316;28;925;-76
2022/08/28 10:47:15;;;;;;;;;;;;;;;;;;5053169;28;1918;-76
2022/08/28 10:49:42;;;;;;;;;;;;;;;;;;5053100;28;1332;-77
2022/08/28 10:52:10;;;;;;;;;;;;;;;;;;5052730;28;1067;-77
2022/08/28 10:54:39;;;;;;;;;;;;;;;;;;5053182;28;1063;-77
2022/08/28 10:57:07;;;;;;;;;;;;;;;;;;5053232;28;1011;-76
2022/08/28 10:59:33;;;;;;;;;;;;;;;;;;5053245;28;1352;-75
2022/08/28 11:02:00;;;;;;;;;;;;;;;;;;5052936;28;1072;-76
2022/08/28 11:04:28;;;;;;;;;;;;;;;;;;5035074;28;1302;-76
2022/08/28 11:06:54;;;;;;;;;;;;;;;;;;5053142;28;787;-76
2022/08/28 11:09:28;;;;;;;;;;;;;;;;;;5035047;28;1918;-75
2022/08/28 11:11:56;;;;;;;;;;;;;;;;;;5052529;28;945;-76
2022/08/28 11:14:23;;;;;;;;;;;;;;;;;;5052929;28;901;-76
2022/08/28 11:16:49;;;;;;;;;;;;;;;;;;5052807;28;1123;-75
2022/08/28 11:19:19;;;;;;;;;;;;;;;;;;5034866;28;1357;-76
2022/08/28 11:21:47;;;;;;;;;;;;;;;;;;5034583;28;1109;-76
2022/08/28 11:24:21;;;;;;;;;;;;;;;;;;5052730;28;1126;-76
2022/08/28 11:26:49;;;;;;;;;;;;;;;;;;5052750;28;1031;-76
2022/08/28 11:29:30;;;;;;;;;;;;;;;;;;5032841;28;1919;-77
2022/08/28 11:32:13;;;;;;;;;;;;;;;;;;5013196;28;1559;-75
2022/08/28 11:34:58;;;;;;;;;;;;;;;;;;5031439;28;1348;-76
2022/08/28 11:37:39;;;;;;;;;;;;;;;;;;5032570;28;991;-75
2022/08/28 11:40:17;;;;;;;;;;;;;;;;;;5031739;28;1304;-77
2022/08/28 11:42:47;;;;;;;;;;;;;;;;;;5031881;28;1107;-76
2022/08/28 11:45:17;;;;;;;;;;;;;;;;;;5031824;28;885;-77
2022/08/28 11:47:50;;;;;;;;;;;;;;;;;;5015487;28;1919;-75
2022/08/28 11:50:19;;;;;;;;;;;;;;;;;;5023731;28;1512;-77
2022/08/28 11:52:54;;;;;;;;;;;;;;;;;;5040516;28;1417;-77
2022/08/28 11:55:21;;;;;;;;;;;;;;;;;;5011937;28;1127;-77
2022/08/28 11:57:54;;;;;;;;;;;;;;;;;;5028975;28;1452;-76
2022/08/28 12:00:21;;;;;;;;;;;;;;;;;;5021875;28;1099;-77
2022/08/28 12:02:48;;;;;;;;;;;;;;;;;;5013637;28;1192;-77
2022/08/28 12:05:33;;;;;;;;;;;;;;;;;;5031598;28;1068;-76
2022/08/28 12:08:01;;;;;;;;;;;;;;;;;;5029459;28;1971;-77
2022/08/28 12:10:47;;;;;;;;;;;;;;;;;;5018812;28;1432;-76
2022/08/28 12:13:13;;;;;;;;;;;;;;;;;;5031995;28;1185;-76
2022/08/28 12:15:41;;;;;;;;;;;;;;;;;;5030544;28;1269;-76
2022/08/28 12:18:13;;;;;;;;;;;;;;;;;;5031235;28;1312;-77
2022/08/28 12:20:41;;;;;;;;;;;;;;;;;;5031638;28;973;-77
2022/08/28 12:23:26;;;;;;;;;;;;;;;;;;5030919;28;922;-77
2022/08/28 12:25:59;;;;;;;;;;;;;;;;;;5013644;28;958;-76
2022/08/28 12:28:26;;;;;;;;;;;;;;;;;;5038288;28;1922;-77
2022/08/28 12:30:54;;;;;;;;;;;;;;;;;;5047642;28;1248;-77
2022/08/28 12:33:22;;;;;;;;;;;;;;;;;;5051181;28;1079;-76
2022/08/28 12:35:48;;;;;;;;;;;;;;;;;;5037221;28;1428;-76
2022/08/28 12:38:17;;;;;;;;;;;;;;;;;;5039534;28;1400;-77
2022/08/28 12:40:49;;;;;;;;;;;;;;;;;;5029165;28;1469;-77
2022/08/28 12:43:20;;;;;;;;;;;;;;;;;;5027739;28;1322;-78
2022/08/28 12:45:48;;;;;;;;;;;;;;;;;;5048268;28;1408;-78
2022/08/28 12:48:16;;;;;;;;;;;;;;;;;;5029058;28;1989;-78
2022/08/28 12:50:42;;;;;;;;;;;;;;;;;;5027988;28;926;-79
2022/08/28 12:53:11;;;;;;;;;;;;;;;;;;5027160;28;1064;-78
2022/08/28 12:55:37;;;;;;;;;;;;;;;;;;5028991;28;1087;-77
2022/08/28 12:58:04;;;;;;;;;;;;;;;;;;5022188;28;1421;-77
2022/08/28 13:00:33;;;;;;;;;;;;;;;;;;5022080;28;1414;-77
2022/08/28 13:03:00;;;;;;;;;;;;;;;;;;5042175;28;1221;-77
2022/08/28 13:05:28;;;;;;;;;;;;;;;;;;5040302;28;1393;-77
2022/08/28 13:07:55;;;;;;;;;;;;;;;;;;5044476;28;1918;-77
2022/08/28 13:10:22;;;;;;;;;;;;;;;;;;5033975;28;1462;-75
2022/08/28 13:12:51;;;;;;;;;;;;;;;;;;5017273;28;1264;-77
2022/08/28 13:15:32;;;;;;;;;;;;;;;;;;5034436;28;868;-77
2022/08/28 13:18:00;;;;;;;;;;;;;;;;;;5030627;28;1428;-76
2022/08/28 13:20:27;;;;;;;;;;;;;;;;;;5045266;28;1150;-77
2022/08/28 13:22:53;;;;;;;;;;;;;;;;;;5053413;28;1119;-79
2022/08/28 13:25:20;;;;;;;;;;;;;;;;;;5053459;28;1127;-78
2022/08/28 13:27:54;;;;;;;;;;;;;;;;;;5043520;28;1971;-77
2022/08/28 13:30:22;;;;;;;;;;;;;;;;;;5025610;28;1249;-77
2022/08/28 13:32:54;;;;;;;;;;;;;;;;;;5045730;28;1420;-77
2022/08/28 13:35:38;;;;;;;;;;;;;;;;;;5033452;28;1453;-77
2022/08/28 13:38:07;;;;;;;;;;;;;;;;;;5039039;28;1393;-77
2022/08/28 13:40:34;;;;;;;;;;;;;;;;;;5026110;28;1553;-77
2022/08/28 13:43:00;;;;;;;;;;;;;;;;;;5028100;28;1576;-77
2022/08/28 13:45:26;;;;;;;;;;;;;;;;;;5054529;28;1064;-79
2022/08/28 13:47:53;;;;;;;;;;;;;;;;;;5054632;28;1977;-78
2022/08/28 13:50:19;;;;;;;;;;;;;;;;;;5046931;28;1604;-78
2022/08/28 13:52:46;;;;;;;;;;;;;;;;;;5042594;28;1205;-78
2022/08/28 13:55:12;;;;;;;;;;;;;;;;;;5015864;28;1626;-76
2022/08/28 13:57:39;;;;;;;;;;;;;;;;;;5040399;28;1349;-76
2022/08/28 14:00:06;;;;;;;;;;;;;;;;;;5037791;28;1407;-76
2022/08/28 14:05:18;;;;;;;;;;;;;;;;;;5024394;28;1305;-77
2022/08/28 14:07:44;;;;;;;;;;;;;;;;;;5031427;28;1268;-77
2022/08/28 14:10:12;;;;;;;;;;;;;;;;;;5053269;28;1981;-77
2022/08/28 14:12:40;;;;;;;;;;;;;;;;;;5053925;28;1060;-78
2022/08/28 14:15:06;;;;;;;;;;;;;;;;;;5036289;28;1258;-77
2022/08/28 14:17:32;;;;;;;;;;;;;;;;;;5054035;28;1004;-77
2022/08/28 14:19:59;;;;;;;;;;;;;;;;;;5053861;28;1333;-77
2022/08/28 14:22:26;;;;;;;;;;;;;;;;;;5053592;28;1132;-78
2022/08/28 14:24:52;;;;;;;;;;;;;;;;;;5036022;28;1412;-78
2022/08/28 14:27:20;;;;;;;;;;;;;;;;;;5035930;28;1206;-78
2022/08/28 14:29:47;;;;;;;;;;;;;;;;;;5053838;28;1985;-77
2022/08/28 14:32:14;;;;;;;;;;;;;;;;;;5053237;28;941;-78
2022/08/28 14:34:40;;;;;;;;;;;;;;;;;;5053886;28;870;-77
2022/08/28 14:37:06;;;;;;;;;;;;;;;;;;5035604;28;1424;-76
2022/08/28 14:39:32;;;;;;;;;;;;;;;;;;5053559;28;1412;-77
2022/08/28 14:41:58;;;;;;;;;;;;;;;;;;5053410;28;806;-78
2022/08/28 14:44:26;;;;;;;;;;;;;;;;;;5020864;28;1650;-76
2022/08/28 14:46:52;;;;;;;;;;;;;;;;;;5038052;28;1175;-76
2022/08/28 14:49:19;;;;;;;;;;;;;;;;;;5030711;28;1989;-77
2022/08/28 14:51:46;;;;;;;;;;;;;;;;;;5024290;28;1278;-79
2022/08/28 14:54:13;;;;;;;;;;;;;;;;;;5006589;28;1350;-76
2022/08/28 14:56:40;;;;;;;;;;;;;;;;;;5021753;28;1267;-76
2022/08/28 14:59:06;;;;;;;;;;;;;;;;;;5007906;28;1359;-76
2022/08/28 15:01:35;;;;;;;;;;;;;;;;;;5024154;28;1288;-79
2022/08/28 15:04:01;;;;;;;;;;;;;;;;;;5026073;28;1394;-77
2022/08/28 15:06:28;;;;;;;;;;;;;;;;;;5034364;28;1247;-77
2022/08/28 15:08:54;;;;;;;;;;;;;;;;;;5024064;28;1973;-77
2022/08/28 15:11:21;;;;;;;;;;;;;;;;;;5024477;28;1304;-76
2022/08/28 15:13:48;;;;;;;;;;;;;;;;;;5032040;28;1351;-78
2022/08/28 15:16:15;;;;;;;;;;;;;;;;;;5034060;28;1167;-76
2022/08/28 15:18:43;;;;;;;;;;;;;;;;;;4997273;28;1342;-79
2022/08/28 15:21:13;;;;;;;;;;;;;;;;;;5012001;28;1083;-78
2022/08/28 15:23:39;;;;;;;;;;;;;;;;;;4995490;28;1151;-76
2022/08/28 15:26:06;;;;;;;;;;;;;;;;;;5034445;28;1468;-76
2022/08/28 15:28:32;;;;;;;;;;;;;;;;;;5016129;28;1972;-75
2022/08/28 15:30:58;;;;;;;;;;;;;;;;;;5032677;28;1063;-76
2022/08/28 15:33:24;;;;;;;;;;;;;;;;;;5031433;28;1484;-77
2022/08/28 15:35:55;;;;;;;;;;;;;;;;;;5021582;28;1441;-77
2022/08/28 15:38:21;;;;;;;;;;;;;;;;;;5040562;28;1341;-76
2022/08/28 15:43:31;;;;;;;;;;;;;;;;;;5021266;28;1461;-77
2022/08/28 15:45:57;;;;;;;;;;;;;;;;;;5046747;28;1578;-79
2022/08/28 15:48:24;;;;;;;;;;;;;;;;;;5088537;22;4035;-75
2022/08/28 15:50:50;;;;;;;;;;;;;;;;;;5069949;28;1969;-75
2022/08/28 15:53:18;;;;;;;;;;;;;;;;;;5081304;28;1369;-75
2022/08/28 15:55:44;;;;;;;;;;;;;;;;;;5082453;28;1224;-76
2022/08/28 15:58:11;;;;;;;;;;;;;;;;;;5064618;28;1513;-75
2022/08/28 16:00:37;;;;;;;;;;;;;;;;;;5058548;28;1122;-75
2022/08/28 16:03:04;;;;;;;;;;;;;;;;;;5057469;28;1449;-75
2022/08/28 16:05:32;;;;;;;;;;;;;;;;;;5057597;28;1449;-75
2022/08/28 16:07:59;;;;;;;;;;;;;;;;;;5056887;28;1490;-75
2022/08/28 16:10:27;;;;;;;;;;;;;;;;;;5056490;28;1910;-75
2022/08/28 16:12:53;;;;;;;;;;;;;;;;;;5065481;28;1514;-75
2022/08/28 16:15:19;;;;;;;;;;;;;;;;;;5060788;28;1378;-76
2022/08/28 16:17:45;;;;;;;;;;;;;;;;;;5061723;28;1521;-77
2022/08/28 16:20:11;;;;;;;;;;;;;;;;;;5057650;28;1076;-75
2022/08/28 16:22:38;;;;;;;;;;;;;;;;;;5049069;28;1080;-74
2022/08/28 16:25:04;;;;;;;;;;;;;;;;;;5053211;28;1463;-75
2022/08/28 16:27:32;;;;;;;;;;;;;;;;;;5060625;28;1404;-73
2022/08/28 16:29:58;;;;;;;;;;;;;;;;;;5069328;28;1918;-75
2022/08/28 16:32:24;;;;;;;;;;;;;;;;;;5044987;28;1439;-74
2022/08/28 16:34:51;;;;;;;;;;;;;;;;;;5057107;28;1150;-75
2022/08/28 16:37:17;;;;;;;;;;;;;;;;;;5062976;28;1494;-73
2022/08/28 16:39:43;;;;;;;;;;;;;;;;;;5060562;28;1126;-75
2022/08/28 16:42:10;;;;;;;;;;;;;;;;;;5066280;28;1124;-75
2022/08/28 16:44:37;;;;;;;;;;;;;;;;;;5057866;28;1475;-75
2022/08/28 16:47:04;;;;;;;;;;;;;;;;;;5057313;28;1197;-75
2022/08/28 16:49:30;;;;;;;;;;;;;;;;;;5046705;28;1972;-74
2022/08/28 16:51:56;;;;;;;;;;;;;;;;;;5039699;28;1370;-75
2022/08/28 16:54:23;;;;;;;;;;;;;;;;;;5068837;28;944;-75
2022/08/28 16:56:49;;;;;;;;;;;;;;;;;;5063719;28;1387;-74
2022/08/28 16:59:19;;;;;;;;;;;;;;;;;;5059166;28;1510;-75
2022/08/28 17:01:47;;;;;;;;;;;;;;;;;;5059107;28;1358;-75
2022/08/28 17:04:13;;;;;;;;;;;;;;;;;;5065611;28;1469;-75
2022/08/28 17:06:40;;;;;;;;;;;;;;;;;;5054430;28;1118;-75
2022/08/28 17:09:06;;;;;;;;;;;;;;;;;;5057248;28;1985;-75
2022/08/28 17:11:32;;;;;;;;;;;;;;;;;;5056371;28;1381;-74
2022/08/28 17:13:58;;;;;;;;;;;;;;;;;;5056116;28;1972;-75
2022/08/28 17:16:25;;;;;;;;;;;;;;;;;;5062699;28;1527;-75
2022/08/28 17:18:53;;;;;;;;;;;;;;;;;;5042901;28;1480;-75